createdAt,value
2018-02-09T07:20:09.794Z,-0.57
2018-02-09T07:21:09.707Z,-0.61
2018-02-09T07:23:02.494Z,-0.64
2018-02-09T07:24:02.434Z,-0.68
2018-02-09T07:25:55.271Z,-0.59
2018-02-09T07:26:55.212Z,-0.57
2018-02-09T07:28:48.035Z,-0.62
2018-02-09T07:29:48.003Z,-0.62
2018-02-09T07:31:40.840Z,-0.72
2018-02-09T07:32:40.785Z,-0.85
2018-02-09T07:34:33.599Z,-0.96
2018-02-09T07:35:33.583Z,-0.93
2018-02-09T07:37:26.403Z,-0.89
2018-02-09T07:38:26.352Z,-0.91
2018-02-09T07:40:19.162Z,-0.83
2018-02-09T07:41:19.132Z,-0.83
2018-02-09T07:43:12.011Z,-0.77
2018-02-09T07:44:11.915Z,-0.65
2018-02-09T07:46:04.923Z,-0.61
2018-02-09T07:47:04.696Z,-0.68
2018-02-09T07:48:04.663Z,-0.57
2018-02-09T07:49:04.637Z,-0.57
2018-02-09T07:50:04.606Z,-0.62
2018-02-09T07:51:04.573Z,-0.59
2018-02-09T07:52:04.544Z,-0.67
2018-02-09T07:53:04.518Z,-0.57
2018-02-09T07:54:04.489Z,-0.72
2018-02-09T07:55:04.451Z,-0.65
2018-02-09T07:56:04.426Z,-0.68
2018-02-09T07:57:04.399Z,-0.65
2018-02-09T07:58:04.370Z,-0.67
2018-02-09T07:59:04.336Z,-0.62
2018-02-09T08:00:04.306Z,-0.67
2018-02-09T08:01:04.282Z,-0.62
2018-02-09T08:02:04.248Z,-0.52
2018-02-09T08:03:04.234Z,-0.57
2018-02-09T08:04:04.190Z,-0.59
2018-02-09T08:05:04.163Z,-0.67
2018-02-09T08:06:04.133Z,-0.57
2018-02-09T08:07:04.105Z,-0.54
2018-02-09T08:08:04.070Z,-0.49
2018-02-09T08:09:04.047Z,-0.49
2018-02-09T08:10:04.016Z,-0.38
2018-02-09T08:11:03.982Z,-0.39
2018-02-09T08:12:03.953Z,-0.29
2018-02-09T08:13:03.926Z,-0.14
2018-02-09T08:14:03.900Z,-0.20
2018-02-09T08:15:03.866Z,-0.18
2018-02-09T08:16:03.840Z,-0.18
2018-02-09T08:17:03.806Z,-0.17
2018-02-09T08:18:03.781Z,-0.20
2018-02-09T08:19:03.748Z,-0.17
2018-02-09T08:20:03.722Z,-0.25
2018-02-09T08:21:03.701Z,-0.20
2018-02-09T08:22:03.663Z,-0.17
2018-02-09T08:23:03.630Z,-0.14
2018-02-09T08:24:03.602Z,-0.23
2018-02-09T08:25:03.575Z,-0.10
2018-02-09T08:26:03.542Z,-0.10
2018-02-09T08:27:03.516Z,-0.11
2018-02-09T08:28:03.486Z,-0.10
2018-02-09T08:29:03.460Z,0.01
2018-02-09T08:30:03.431Z,-0.13
2018-02-09T08:31:03.401Z,-0.10
2018-02-09T08:32:03.366Z,-0.07
2018-02-09T08:33:03.342Z,-0.03
2018-02-09T08:34:03.311Z,-0.07
2018-02-09T08:35:03.277Z,-0.13
2018-02-09T08:36:03.249Z,-0.10
2018-02-09T08:37:03.228Z,0.00
2018-02-09T08:38:03.195Z,-0.08
2018-02-09T08:39:03.166Z,-0.17
2018-02-09T08:40:03.141Z,-0.13
2018-02-09T08:41:03.106Z,-0.03
2018-02-09T08:42:03.077Z,0.04
2018-02-09T08:43:03.042Z,0.04
2018-02-09T08:44:03.028Z,0.08
2018-02-09T08:45:02.987Z,0.10
2018-02-09T08:46:02.961Z,0.03
2018-02-09T08:47:02.930Z,0.10
2018-02-09T08:48:02.901Z,0.11
2018-02-09T08:49:02.873Z,0.11
2018-02-09T08:50:02.841Z,0.12
2018-02-09T08:51:02.822Z,0.07
2018-02-09T08:52:02.786Z,0.11
2018-02-09T08:53:02.753Z,0.18
2018-02-09T08:54:02.726Z,0.12
2018-02-09T08:55:02.697Z,0.21
2018-02-09T08:56:02.667Z,0.11
2018-02-09T08:57:02.643Z,0.12
2018-02-09T08:58:02.612Z,0.19
2018-02-09T08:59:02.579Z,0.18
2018-02-09T09:00:02.549Z,0.34
2018-02-09T09:01:02.526Z,0.34
2018-02-09T09:02:02.496Z,0.39
2018-02-09T09:03:02.463Z,0.56
2018-02-09T09:04:02.436Z,0.56
2018-02-09T09:05:02.411Z,0.65
2018-02-09T09:06:02.379Z,0.62
2018-02-09T09:07:02.345Z,0.74
2018-02-09T09:08:02.317Z,0.70
2018-02-09T09:09:02.290Z,0.62
2018-02-09T09:10:02.261Z,0.62
2018-02-09T09:11:02.230Z,0.58
2018-02-09T09:12:02.205Z,0.47
2018-02-09T09:13:02.176Z,0.44
2018-02-09T09:14:02.148Z,0.47
2018-02-09T09:15:02.118Z,0.56
2018-02-09T09:16:02.087Z,0.65
2018-02-09T09:17:02.064Z,0.66
2018-02-09T09:18:02.031Z,0.68
2018-02-09T09:19:01.996Z,0.63
2018-02-09T09:20:02.012Z,0.80
2018-02-09T09:21:01.937Z,0.78
2018-02-09T09:22:01.910Z,0.92
2018-02-09T09:23:01.887Z,0.92
2018-02-09T09:24:01.857Z,0.91
2018-02-09T09:25:01.825Z,0.87
2018-02-09T09:26:01.797Z,0.87
2018-02-09T09:27:01.770Z,0.95
2018-02-09T09:28:01.742Z,0.84
2018-02-09T09:29:01.720Z,1.01
2018-02-09T09:30:01.680Z,0.96
2018-02-09T09:31:01.652Z,0.92
2018-02-09T09:32:01.624Z,1.02
2018-02-09T09:33:01.613Z,1.10
2018-02-09T09:34:01.565Z,0.99
2018-02-09T09:35:01.541Z,1.10
2018-02-09T09:36:01.514Z,1.08
2018-02-09T09:37:01.480Z,1.10
2018-02-09T09:38:01.458Z,1.02
2018-02-09T09:39:01.423Z,1.08
2018-02-09T09:40:01.398Z,1.10
2018-02-09T09:41:01.365Z,1.05
2018-02-09T09:42:01.344Z,1.01
2018-02-09T09:43:01.307Z,1.06
2018-02-09T09:44:01.283Z,0.96
2018-02-09T09:45:01.250Z,1.05
2018-02-09T09:46:01.221Z,1.01
2018-02-09T09:47:01.193Z,1.08
2018-02-09T09:48:01.168Z,1.04
2018-02-09T09:49:01.139Z,1.04
2018-02-09T09:50:01.106Z,0.91
2018-02-09T09:51:01.080Z,0.95
2018-02-09T09:52:01.049Z,0.95
2018-02-09T09:53:01.024Z,0.91
2018-02-09T09:54:00.992Z,0.92
2018-02-09T09:55:00.967Z,0.91
2018-02-09T09:56:00.938Z,0.88
2018-02-09T09:57:00.908Z,1.01
2018-02-09T09:58:00.876Z,1.08
2018-02-09T09:59:00.855Z,1.10
2018-02-09T10:00:00.821Z,1.16
2018-02-09T10:01:00.794Z,1.13
2018-02-09T10:02:00.762Z,1.06
2018-02-09T10:03:00.733Z,1.13
2018-02-09T10:04:00.705Z,1.16
2018-02-09T10:05:00.674Z,1.14
2018-02-09T10:06:00.646Z,1.13
2018-02-09T10:07:00.621Z,1.20
2018-02-09T10:08:00.589Z,1.17
2018-02-09T10:09:00.565Z,1.14
2018-02-09T10:10:00.532Z,1.16
2018-02-09T10:11:00.512Z,1.14
2018-02-09T10:12:00.476Z,1.10
2018-02-09T10:13:00.451Z,1.05
2018-02-09T10:14:00.430Z,1.06
2018-02-09T10:15:00.391Z,1.06
2018-02-09T10:16:00.364Z,1.16
2018-02-09T10:17:00.336Z,1.10
2018-02-09T10:18:00.302Z,1.08
2018-02-09T10:19:00.278Z,1.05
2018-02-09T10:20:00.246Z,1.08
2018-02-09T10:21:00.220Z,0.96
2018-02-09T10:22:00.190Z,1.05
2018-02-09T10:23:00.161Z,1.05
2018-02-09T10:24:00.131Z,1.16
2018-02-09T10:25:00.107Z,1.10
2018-02-09T10:26:00.077Z,1.20
2018-02-09T10:27:00.041Z,1.13
2018-02-09T10:28:00.021Z,1.23
2018-02-09T10:28:59.990Z,1.37
2018-02-09T10:29:59.962Z,1.40
2018-02-09T10:30:59.929Z,1.40
2018-02-09T10:31:59.905Z,1.44
2018-02-09T10:32:59.879Z,1.45
2018-02-09T10:33:59.848Z,1.42
2018-02-09T10:34:59.814Z,1.48
2018-02-09T10:35:59.786Z,1.48
2018-02-09T10:36:59.762Z,1.49
2018-02-09T10:37:59.728Z,1.55
2018-02-09T10:38:59.701Z,1.52
2018-02-09T10:39:59.671Z,1.55
2018-02-09T10:40:59.644Z,1.60
2018-02-09T10:41:59.618Z,1.60
2018-02-09T10:42:59.586Z,1.60
2018-02-09T10:43:59.558Z,1.71
2018-02-09T10:44:59.537Z,1.71
2018-02-09T10:45:59.504Z,1.77
2018-02-09T10:46:59.472Z,1.76
2018-02-09T10:47:59.448Z,1.77
2018-02-09T10:48:59.414Z,1.76
2018-02-09T10:49:59.386Z,1.76
2018-02-09T10:50:59.360Z,1.60
2018-02-09T10:51:59.332Z,1.71
2018-02-09T10:52:59.303Z,1.67
2018-02-09T10:53:59.270Z,1.67
2018-02-09T10:54:59.246Z,1.80
2018-02-09T10:55:59.224Z,1.76
2018-02-09T10:56:59.189Z,1.80
2018-02-09T10:57:59.163Z,1.78
2018-02-09T10:58:59.127Z,1.76
2018-02-09T10:59:59.105Z,1.80
2018-02-09T11:00:59.070Z,1.76
2018-02-09T11:01:59.046Z,1.78
2018-02-09T11:02:59.016Z,1.88
2018-02-09T11:03:58.985Z,1.99
2018-02-09T11:04:58.962Z,1.95
2018-02-09T11:05:58.928Z,2.06
2018-02-09T11:06:58.901Z,2.11
2018-02-09T11:07:58.877Z,2.08
2018-02-09T11:08:58.846Z,2.14
2018-02-09T11:09:58.816Z,2.18
2018-02-09T11:10:58.792Z,2.24
2018-02-09T11:11:58.758Z,2.28
2018-02-09T11:12:58.748Z,2.35
2018-02-09T11:13:58.706Z,2.35
2018-02-09T11:14:58.672Z,2.43
2018-02-09T11:15:58.642Z,2.38
2018-02-09T11:16:58.622Z,2.43
2018-02-09T11:17:58.593Z,2.33
2018-02-09T11:18:58.561Z,2.56
2018-02-09T11:19:58.539Z,2.57
2018-02-09T11:20:58.505Z,2.60
2018-02-09T11:21:58.478Z,2.67
2018-02-09T11:22:58.449Z,2.60
2018-02-09T11:23:58.423Z,2.75
2018-02-09T11:24:58.392Z,2.77
2018-02-09T11:25:58.372Z,2.74
2018-02-09T11:26:58.335Z,2.72
2018-02-09T11:27:58.309Z,2.60
2018-02-09T11:28:58.280Z,2.62
2018-02-09T11:29:58.250Z,2.60
2018-02-09T11:30:58.274Z,2.53
2018-02-09T11:31:58.200Z,2.38
2018-02-09T11:32:58.172Z,2.33
2018-02-09T11:33:58.138Z,2.24
2018-02-09T11:34:58.113Z,2.31
2018-02-09T11:35:58.081Z,2.26
2018-02-09T11:36:58.111Z,2.28
2018-02-09T11:37:58.062Z,2.32
2018-02-09T11:38:58.002Z,2.35
2018-02-09T11:39:57.969Z,2.38
2018-02-09T11:40:57.946Z,2.36
2018-02-09T11:41:58.002Z,2.36
2018-02-09T11:42:57.899Z,2.47
2018-02-09T11:43:57.856Z,2.47
2018-02-09T11:44:57.832Z,2.47
2018-02-09T11:45:57.800Z,2.44
2018-02-09T11:46:57.775Z,2.49
2018-02-09T11:47:57.745Z,2.47
2018-02-09T11:48:57.718Z,2.60
2018-02-09T11:49:57.689Z,2.57
2018-02-09T11:50:57.663Z,2.65
2018-02-09T11:51:57.630Z,2.77
2018-02-09T11:52:57.611Z,2.77
2018-02-09T11:53:57.580Z,2.77
2018-02-09T11:54:57.547Z,2.77
2018-02-09T11:55:57.522Z,2.80
2018-02-09T11:56:57.496Z,2.68
2018-02-09T11:57:57.467Z,2.77
2018-02-09T11:58:57.434Z,2.72
2018-02-09T11:59:57.410Z,2.71
2018-02-09T12:00:57.395Z,2.71
2018-02-09T12:01:57.360Z,2.74
2018-02-09T12:02:57.324Z,2.77
2018-02-09T12:03:57.296Z,2.71
2018-02-09T12:04:57.269Z,2.83
2018-02-09T12:05:57.245Z,2.85
2018-02-09T12:06:57.251Z,2.87
2018-02-09T12:07:57.326Z,2.80
2018-02-09T12:08:57.158Z,2.74
2018-02-09T12:09:57.122Z,2.92
2018-02-09T12:10:57.103Z,2.74
2018-02-09T12:11:57.070Z,2.75
2018-02-09T12:12:57.047Z,2.75
2018-02-09T12:13:57.014Z,2.83
2018-02-09T12:14:57.004Z,2.82
2018-02-09T12:15:56.964Z,2.83
2018-02-09T12:16:56.940Z,2.86
2018-02-09T12:17:56.903Z,2.86
2018-02-09T12:18:56.880Z,2.85
2018-02-09T12:19:56.850Z,2.80
2018-02-09T12:20:56.820Z,2.83
2018-02-09T12:21:56.793Z,2.87
2018-02-09T12:22:56.767Z,2.87
2018-02-09T12:23:56.740Z,2.87
2018-02-09T12:24:56.707Z,3.00
2018-02-09T12:25:56.682Z,2.98
2018-02-09T12:26:56.651Z,2.90
2018-02-09T12:27:56.628Z,2.75
2018-02-09T12:28:56.595Z,2.74
2018-02-09T12:29:56.572Z,2.87
2018-02-09T12:30:56.539Z,3.07
2018-02-09T12:31:56.510Z,3.04
2018-02-09T12:32:56.502Z,3.10
2018-02-09T12:33:56.468Z,3.14
2018-02-09T12:34:56.430Z,3.18
2018-02-09T12:35:56.400Z,3.21
2018-02-09T12:36:56.382Z,3.26
2018-02-09T12:37:56.346Z,3.22
2018-02-09T12:38:56.319Z,3.29
2018-02-09T12:39:56.303Z,3.28
2018-02-09T12:40:56.265Z,3.28
2018-02-09T12:41:56.234Z,3.21
2018-02-09T12:42:56.202Z,3.25
2018-02-09T12:43:56.177Z,3.29
2018-02-09T12:44:56.291Z,3.23
2018-02-09T12:45:56.125Z,3.34
2018-02-09T12:46:56.092Z,3.36
2018-02-09T12:47:56.066Z,3.29
2018-02-09T12:48:56.043Z,3.36
2018-02-09T12:49:56.030Z,3.23
2018-02-09T12:50:55.984Z,3.29
2018-02-09T12:51:56.010Z,3.40
2018-02-09T12:52:55.931Z,3.31
2018-02-09T12:53:55.902Z,3.50
2018-02-09T12:54:55.873Z,3.48
2018-02-09T12:55:55.841Z,3.47
2018-02-09T12:56:55.822Z,3.50
2018-02-09T12:57:55.791Z,3.50
2018-02-09T12:58:55.759Z,3.45
2018-02-09T12:59:55.762Z,3.41
2018-02-09T13:00:55.703Z,3.37
2018-02-09T13:01:55.708Z,3.28
2018-02-09T13:02:55.648Z,3.28
2018-02-09T13:03:55.709Z,3.31
2018-02-09T13:04:55.592Z,3.29
2018-02-09T13:05:55.570Z,3.07
2018-02-09T13:06:55.540Z,3.25
2018-02-09T13:07:55.546Z,3.23
2018-02-09T13:08:55.486Z,3.36
2018-02-09T13:09:55.456Z,3.26
2018-02-09T13:10:55.433Z,3.32
2018-02-09T13:11:55.406Z,3.31
2018-02-09T13:12:55.378Z,3.29
2018-02-09T13:13:55.400Z,3.29
2018-02-09T13:14:55.315Z,3.32
2018-02-09T13:15:55.287Z,3.29
2018-02-09T13:16:55.263Z,3.29
2018-02-09T13:17:55.265Z,3.44
2018-02-09T13:18:55.231Z,3.42
2018-02-09T13:19:55.177Z,3.47
2018-02-09T13:20:55.196Z,3.47
2018-02-09T13:21:55.120Z,3.42
2018-02-09T13:22:55.096Z,3.44
2018-02-09T13:23:55.070Z,3.44
2018-02-09T13:24:55.039Z,3.50
2018-02-09T13:25:55.012Z,3.50
2018-02-09T13:26:55.051Z,3.47
2018-02-09T13:27:54.968Z,3.50
2018-02-09T13:28:54.930Z,3.56
2018-02-09T13:29:54.900Z,3.51
2018-02-09T13:30:54.874Z,3.55
2018-02-09T13:31:54.845Z,3.48
2018-02-09T13:32:54.819Z,3.44
2018-02-09T13:33:54.796Z,3.58
2018-02-09T13:34:54.772Z,3.66
2018-02-09T13:35:54.738Z,3.55
2018-02-09T13:36:54.796Z,3.55
2018-02-09T13:37:54.680Z,3.73
2018-02-09T13:38:54.649Z,3.65
2018-02-09T13:39:54.622Z,3.65
2018-02-09T13:40:54.601Z,3.77
2018-02-09T13:41:54.567Z,3.76
2018-02-09T13:42:54.541Z,3.66
2018-02-09T13:43:54.514Z,3.84
2018-02-09T13:44:54.484Z,3.88
2018-02-09T13:45:54.455Z,3.92
2018-02-09T13:46:54.432Z,3.91
2018-02-09T13:47:54.408Z,3.81
2018-02-09T13:48:54.375Z,3.81
2018-02-09T13:49:54.344Z,3.65
2018-02-09T13:50:54.332Z,3.55
2018-02-09T13:51:54.292Z,3.50
2018-02-09T13:52:54.266Z,3.44
2018-02-09T13:53:54.236Z,3.36
2018-02-09T13:54:54.207Z,3.34
2018-02-09T13:55:54.184Z,3.34
2018-02-09T13:56:54.152Z,3.37
2018-02-09T13:57:54.196Z,3.37
2018-02-09T13:58:54.100Z,3.48
2018-02-09T13:59:54.073Z,3.37
2018-02-09T14:00:54.086Z,3.50
2018-02-09T14:01:54.013Z,3.51
2018-02-09T14:02:53.989Z,3.51
2018-02-09T14:03:53.963Z,3.45
2018-02-09T14:04:53.930Z,3.55
2018-02-09T14:05:53.929Z,3.53
2018-02-09T14:06:53.877Z,3.66
2018-02-09T14:07:53.850Z,3.58
2018-02-09T14:08:53.818Z,3.59
2018-02-09T14:09:53.789Z,3.59
2018-02-09T14:10:53.764Z,3.66
2018-02-09T14:11:53.750Z,3.69
2018-02-09T14:12:53.712Z,3.60
2018-02-09T14:13:53.680Z,3.60
2018-02-09T14:14:53.657Z,3.68
2018-02-09T14:15:53.634Z,3.59
2018-02-09T14:16:53.598Z,3.68
2018-02-09T14:17:53.573Z,3.68
2018-02-09T14:18:53.541Z,3.68
2018-02-09T14:19:53.519Z,3.70
2018-02-09T14:20:53.492Z,3.66
2018-02-09T14:21:53.465Z,3.68
2018-02-09T14:22:53.430Z,3.66
2018-02-09T14:23:53.406Z,3.55
2018-02-09T14:24:53.435Z,3.59
2018-02-09T14:25:53.348Z,3.62
2018-02-09T14:26:53.327Z,3.65
2018-02-09T14:27:53.297Z,3.78
2018-02-09T14:28:53.273Z,3.83
2018-02-09T14:29:53.280Z,3.81
2018-02-09T14:30:53.212Z,3.84
2018-02-09T14:31:53.186Z,3.86
2018-02-09T14:32:53.192Z,3.96
2018-02-09T14:33:53.127Z,4.01
2018-02-09T14:34:53.101Z,4.05
2018-02-09T14:35:53.076Z,4.10
2018-02-09T14:36:53.048Z,4.10
2018-02-09T14:37:53.063Z,4.12
2018-02-09T14:38:52.994Z,4.08
2018-02-09T14:39:52.961Z,4.12
2018-02-09T14:40:52.939Z,4.13
2018-02-09T14:41:52.910Z,4.05
2018-02-09T14:42:52.880Z,4.06
2018-02-09T14:43:52.850Z,4.14
2018-02-09T14:44:52.828Z,4.22
2018-02-09T14:45:52.797Z,4.06
2018-02-09T14:46:52.770Z,4.02
2018-02-09T14:47:52.742Z,3.95
2018-02-09T14:48:52.717Z,3.96
2018-02-09T14:49:52.689Z,3.99
2018-02-09T14:50:52.659Z,4.08
2018-02-09T14:51:52.632Z,4.17
2018-02-09T14:52:52.609Z,4.24
2018-02-09T14:53:52.580Z,4.20
2018-02-09T14:54:52.550Z,4.10
2018-02-09T14:55:52.525Z,4.08
2018-02-09T14:56:52.494Z,4.06
2018-02-09T14:57:52.469Z,3.99
2018-02-09T14:58:52.438Z,4.08
2018-02-09T14:59:52.413Z,4.12
2018-02-09T15:00:52.384Z,3.94
2018-02-09T15:01:52.361Z,4.05
2018-02-09T15:02:52.333Z,4.10
2018-02-09T15:03:52.305Z,4.10
2018-02-09T15:04:52.274Z,4.14
2018-02-09T15:05:52.250Z,4.08
2018-02-09T15:06:52.218Z,4.23
2018-02-09T15:07:52.196Z,4.08
2018-02-09T15:08:52.166Z,4.06
2018-02-09T15:09:52.138Z,4.02
2018-02-09T15:10:52.109Z,4.02
2018-02-09T15:11:52.084Z,4.02
2018-02-09T15:12:52.059Z,3.99
2018-02-09T15:13:52.035Z,4.02
2018-02-09T15:14:52.003Z,4.12
2018-02-09T15:15:52.159Z,4.02
2018-02-09T15:16:51.972Z,3.99
2018-02-09T15:17:52.005Z,4.02
2018-02-09T15:18:51.895Z,3.95
2018-02-09T15:19:51.868Z,3.95
2018-02-09T15:20:51.840Z,3.95
2018-02-09T15:21:51.806Z,3.95
2018-02-09T15:22:51.789Z,3.92
2018-02-09T15:23:51.754Z,3.95
2018-02-09T15:24:51.730Z,4.04
2018-02-09T15:25:51.696Z,4.05
2018-02-09T15:26:51.675Z,4.12
2018-02-09T15:27:51.641Z,4.13
2018-02-09T15:28:51.617Z,4.13
2018-02-09T15:29:51.588Z,3.95
2018-02-09T15:30:51.565Z,3.86
2018-02-09T15:31:51.538Z,3.83
2018-02-09T15:32:51.506Z,3.56
2018-02-09T15:33:51.491Z,3.60
2018-02-09T15:34:51.456Z,3.58
2018-02-09T15:35:51.424Z,3.69
2018-02-09T15:36:51.403Z,3.66
2018-02-09T15:37:51.372Z,3.66
2018-02-09T15:38:51.344Z,3.66
2018-02-09T15:39:51.317Z,3.74
2018-02-09T15:40:51.292Z,3.59
2018-02-09T15:41:51.255Z,3.68
2018-02-09T15:42:51.232Z,3.66
2018-02-09T15:43:51.206Z,3.59
2018-02-09T15:44:51.173Z,3.42
2018-02-09T15:45:51.150Z,3.32
2018-02-09T15:46:51.121Z,3.41
2018-02-09T15:47:51.093Z,3.34
2018-02-09T15:48:51.068Z,3.42
2018-02-09T15:49:51.034Z,3.45
2018-02-09T15:50:51.012Z,3.40
2018-02-09T15:51:50.982Z,3.28
2018-02-09T15:52:50.960Z,3.29
2018-02-09T15:53:50.927Z,3.29
2018-02-09T15:54:50.900Z,3.31
2018-02-09T15:55:50.875Z,3.26
2018-02-09T15:56:50.846Z,3.28
2018-02-09T15:57:50.819Z,3.22
2018-02-09T15:58:50.787Z,3.28
2018-02-09T15:59:50.764Z,3.26
2018-02-09T16:00:50.730Z,3.28
2018-02-09T16:01:50.703Z,3.22
2018-02-09T16:02:50.680Z,3.29
2018-02-09T16:03:50.647Z,3.16
2018-02-09T16:04:50.631Z,3.14
2018-02-09T16:05:50.592Z,3.18
2018-02-09T16:06:50.569Z,3.13
2018-02-09T16:07:50.541Z,3.01
2018-02-09T16:08:50.513Z,2.85
2018-02-09T16:09:50.482Z,2.90
2018-02-09T16:10:50.457Z,2.85
2018-02-09T16:11:50.429Z,2.85
2018-02-09T16:12:50.398Z,2.87
2018-02-09T16:13:50.372Z,2.86
2018-02-09T16:14:50.341Z,2.87
2018-02-09T16:15:50.313Z,2.74
2018-02-09T16:16:50.291Z,2.71
2018-02-09T16:17:50.258Z,2.74
2018-02-09T16:18:50.229Z,2.69
2018-02-09T16:19:50.206Z,2.69
2018-02-09T16:20:50.189Z,2.69
2018-02-09T16:21:50.149Z,2.60
2018-02-09T16:22:50.118Z,2.54
2018-02-09T16:23:50.088Z,2.54
2018-02-09T16:24:50.062Z,2.46
2018-02-09T16:25:50.033Z,2.44
2018-02-09T16:26:50.010Z,2.49
2018-02-09T16:27:49.977Z,2.43
2018-02-09T16:28:49.953Z,2.36
2018-02-09T16:29:49.927Z,2.36
2018-02-09T16:30:49.908Z,2.33
2018-02-09T16:31:49.871Z,2.32
2018-02-09T16:32:49.838Z,2.26
2018-02-09T16:33:49.806Z,2.39
2018-02-09T16:34:49.789Z,2.22
2018-02-09T16:35:49.756Z,2.14
2018-02-09T16:36:49.725Z,2.18
2018-02-09T16:37:49.708Z,2.14
2018-02-09T16:38:49.669Z,2.15
2018-02-09T16:39:49.645Z,2.17
2018-02-09T16:40:49.660Z,2.08
2018-02-09T16:41:49.582Z,2.00
2018-02-09T16:42:49.558Z,2.04
2018-02-09T16:43:49.529Z,2.08
2018-02-09T16:44:49.493Z,2.08
2018-02-09T16:45:49.474Z,2.02
2018-02-09T16:46:49.441Z,1.92
2018-02-09T16:47:49.411Z,1.87
2018-02-09T16:48:49.388Z,1.91
2018-02-09T16:49:49.357Z,1.95
2018-02-09T16:50:49.327Z,1.87
2018-02-09T16:51:49.297Z,1.80
2018-02-09T16:52:49.274Z,1.77
2018-02-09T16:53:49.246Z,1.77
2018-02-09T16:54:49.211Z,1.73
2018-02-09T16:55:49.184Z,1.70
2018-02-09T16:56:49.155Z,1.70
2018-02-09T16:57:49.133Z,1.68
2018-02-09T16:58:49.102Z,1.68
2018-02-09T16:59:49.070Z,1.73
2018-02-09T17:00:49.047Z,1.67
2018-02-09T17:01:49.015Z,1.62
2018-02-09T17:02:48.987Z,1.66
2018-02-09T17:03:48.957Z,1.62
2018-02-09T17:04:48.931Z,1.60
2018-02-09T17:05:48.899Z,1.53
2018-02-09T17:06:48.872Z,1.59
2018-02-09T17:07:48.842Z,1.60
2018-02-09T17:08:48.817Z,1.62
2018-02-09T17:09:48.788Z,1.67
2018-02-09T17:10:48.761Z,1.56
2018-02-09T17:11:48.727Z,1.55
2018-02-09T17:12:48.703Z,1.66
2018-02-09T17:13:48.667Z,1.63
2018-02-09T17:14:48.645Z,1.56
2018-02-09T17:15:48.608Z,1.63
2018-02-09T17:16:48.596Z,1.55
2018-02-09T17:17:48.556Z,1.60
2018-02-09T17:18:48.528Z,1.66
2018-02-09T17:19:48.500Z,1.56
2018-02-09T17:20:48.469Z,1.66
2018-02-09T17:21:48.444Z,1.66
2018-02-09T17:22:48.409Z,1.53
2018-02-09T17:23:48.387Z,1.67
2018-02-09T17:24:48.359Z,1.52
2018-02-09T17:25:48.328Z,1.55
2018-02-09T17:26:48.296Z,1.53
2018-02-09T17:27:48.271Z,1.53
2018-02-09T17:28:48.242Z,1.42
2018-02-09T17:29:48.217Z,1.44
2018-02-09T17:30:48.181Z,1.49
2018-02-09T17:31:48.156Z,1.52
2018-02-09T17:32:48.123Z,1.49
2018-02-09T17:33:48.098Z,1.58
2018-02-09T17:34:48.070Z,1.55
2018-02-09T17:35:48.073Z,1.50
2018-02-09T17:36:48.012Z,1.50
2018-02-09T17:37:47.985Z,1.49
2018-02-09T17:38:47.952Z,1.50
2018-02-09T17:39:47.925Z,1.42
2018-02-09T17:40:47.911Z,1.52
2018-02-09T17:41:47.868Z,1.52
2018-02-09T17:42:47.834Z,1.48
2018-02-09T17:43:47.811Z,1.48
2018-02-09T17:44:47.780Z,1.49
2018-02-09T17:45:47.752Z,1.52
2018-02-09T17:46:47.725Z,1.50
2018-02-09T17:47:47.696Z,1.44
2018-02-09T17:48:47.664Z,1.50
2018-02-09T17:49:47.639Z,1.53
2018-02-09T17:50:47.605Z,1.50
2018-02-09T17:51:47.580Z,1.50
2018-02-09T17:52:47.556Z,1.59
2018-02-09T17:53:47.520Z,1.68
2018-02-09T17:54:47.494Z,1.68
2018-02-09T17:55:47.465Z,1.49
2018-02-09T17:56:47.437Z,1.62
2018-02-09T17:57:47.404Z,1.66
2018-02-09T17:58:47.377Z,1.62
2018-02-09T17:59:47.353Z,1.66
2018-02-09T18:00:47.327Z,1.73
2018-02-09T18:01:47.288Z,1.70
2018-02-09T18:02:47.265Z,1.78
2018-02-09T18:03:47.232Z,1.76
2018-02-09T18:04:47.207Z,1.78
2018-02-09T18:05:47.175Z,1.87
2018-02-09T18:06:47.150Z,1.99
2018-02-09T18:07:47.121Z,2.02
2018-02-09T18:08:47.096Z,1.92
2018-02-09T18:09:47.059Z,1.95
2018-02-09T18:10:47.036Z,2.04
2018-02-09T18:11:47.034Z,1.95
2018-02-09T18:12:46.993Z,1.95
2018-02-09T18:13:46.943Z,1.94
2018-02-09T18:14:46.918Z,1.99
2018-02-09T18:15:46.892Z,1.89
2018-02-09T18:16:46.863Z,1.97
2018-02-09T18:17:46.838Z,2.06
2018-02-09T18:18:46.805Z,1.94
2018-02-09T18:19:46.776Z,2.02
2018-02-09T18:20:46.747Z,2.00
2018-02-09T18:21:46.721Z,1.91
2018-02-09T18:22:46.691Z,2.11
2018-02-09T18:23:46.663Z,2.11
2018-02-09T18:24:46.634Z,2.11
2018-02-09T18:25:46.608Z,2.11
2018-02-09T18:26:46.573Z,2.15
2018-02-09T18:27:46.545Z,2.15
2018-02-09T18:28:46.520Z,2.17
2018-02-09T18:29:46.495Z,2.14
2018-02-09T18:30:46.461Z,2.18
2018-02-09T18:31:46.431Z,2.28
2018-02-09T18:32:46.405Z,2.32
2018-02-09T18:33:46.394Z,2.32
2018-02-09T18:34:46.358Z,2.25
2018-02-09T18:35:46.327Z,2.29
2018-02-09T18:36:46.312Z,2.32
2018-02-09T18:37:46.280Z,2.15
2018-02-09T18:38:46.308Z,2.31
2018-02-09T18:39:46.217Z,2.20
2018-02-09T18:40:46.196Z,2.35
2018-02-09T18:41:46.168Z,2.25
2018-02-09T18:42:46.137Z,2.28
2018-02-09T18:43:46.108Z,2.32
2018-02-09T18:44:46.080Z,2.32
2018-02-09T18:45:46.052Z,2.32
2018-02-09T18:46:46.016Z,2.33
2018-02-09T18:47:45.996Z,2.35
2018-02-09T18:48:45.969Z,2.39
2018-02-09T18:49:45.936Z,2.38
2018-02-09T18:50:45.914Z,2.42
2018-02-09T18:51:45.878Z,2.49
2018-02-09T18:52:45.848Z,2.47
2018-02-09T18:53:45.818Z,2.38
2018-02-09T18:54:45.792Z,2.44
2018-02-09T18:55:45.763Z,2.44
2018-02-09T18:56:45.738Z,2.42
2018-02-09T18:57:45.702Z,2.33
2018-02-09T18:58:45.685Z,2.38
2018-02-09T18:59:45.654Z,2.32
2018-02-09T19:00:45.625Z,2.35
2018-02-09T19:01:45.593Z,2.49
2018-02-09T19:02:45.568Z,2.43
2018-02-09T19:03:45.541Z,2.39
2018-02-09T19:04:45.507Z,2.39
2018-02-09T19:05:45.484Z,2.39
2018-02-09T19:06:45.452Z,2.33
2018-02-09T19:07:45.425Z,2.31
2018-02-09T19:08:45.396Z,2.29
2018-02-09T19:09:45.372Z,2.39
2018-02-09T19:10:45.339Z,2.31
2018-02-09T19:11:45.317Z,2.25
2018-02-09T19:12:45.290Z,2.35
2018-02-09T19:13:45.248Z,2.33
2018-02-09T19:14:45.238Z,2.36
2018-02-09T19:15:45.262Z,2.39
2018-02-09T19:16:45.228Z,2.39
2018-02-09T19:17:45.131Z,2.39
2018-02-09T19:18:45.118Z,2.39
2018-02-09T19:19:45.080Z,2.36
2018-02-09T19:20:45.058Z,2.39
2018-02-09T19:21:45.051Z,2.33
2018-02-09T19:22:45.062Z,2.47
2018-02-09T19:23:45.124Z,2.51
2018-02-09T19:24:45.010Z,2.51
2018-02-09T19:25:44.985Z,2.36
2018-02-09T19:26:44.915Z,2.33
2018-02-09T19:27:44.921Z,2.33
2018-02-09T19:28:44.894Z,2.35
2018-02-09T19:29:44.873Z,2.36
2018-02-09T19:30:44.835Z,2.36
2018-02-09T19:31:44.787Z,2.20
2018-02-09T19:32:44.779Z,2.33
2018-02-09T19:33:44.747Z,2.35
2018-02-09T19:34:44.994Z,2.29
2018-02-09T19:35:44.701Z,2.32
2018-02-09T19:36:44.600Z,2.33
2018-02-09T19:37:44.634Z,2.33
2018-02-09T19:38:44.611Z,2.39
2018-02-09T19:39:44.585Z,2.39
2018-02-09T19:40:44.548Z,2.44
2018-02-09T19:41:44.523Z,2.46
2018-02-09T19:42:44.502Z,2.53
2018-02-09T19:43:44.425Z,2.56
2018-02-09T19:44:44.441Z,2.53
2018-02-09T19:45:44.386Z,2.53
2018-02-09T19:46:44.385Z,2.51
2018-02-09T19:47:44.355Z,2.49
2018-02-09T19:48:44.307Z,2.56
2018-02-09T19:49:44.292Z,2.47
2018-02-09T19:50:44.274Z,2.50
2018-02-09T19:51:44.228Z,2.44
2018-02-09T19:52:44.209Z,2.49
2018-02-09T19:53:44.180Z,2.50
2018-02-09T19:54:44.105Z,2.57
2018-02-09T19:55:44.126Z,2.57
2018-02-09T19:56:44.103Z,2.62
2018-02-09T19:57:44.095Z,2.62
2018-02-09T19:58:44.053Z,2.53
2018-02-09T19:59:43.994Z,2.64
2018-02-09T20:00:43.912Z,2.53
2018-02-09T20:01:43.959Z,2.53
2018-02-09T20:02:43.937Z,2.61
2018-02-09T20:03:43.900Z,2.56
2018-02-09T20:04:43.871Z,2.60
2018-02-09T20:05:43.952Z,2.57
2018-02-09T20:06:43.749Z,2.61
2018-02-09T20:07:43.727Z,2.64
2018-02-09T20:08:43.700Z,2.68
2018-02-09T20:09:43.671Z,2.68
2018-02-09T20:10:43.646Z,2.60
2018-02-09T20:11:43.648Z,2.56
2018-02-09T20:12:43.610Z,2.65
2018-02-09T20:13:43.611Z,2.64
2018-02-09T20:14:43.603Z,2.61
2018-02-09T20:15:43.560Z,2.62
2018-02-09T20:16:43.531Z,2.62
2018-02-09T20:17:43.501Z,2.67
2018-02-09T20:18:43.484Z,2.65
2018-02-09T20:19:43.452Z,2.72
2018-02-09T20:20:43.403Z,2.71
2018-02-09T20:21:43.392Z,2.71
2018-02-09T20:22:43.374Z,2.67
2018-02-09T20:23:43.343Z,2.69
2018-02-09T20:24:43.313Z,2.69
2018-02-09T20:25:43.286Z,2.62
2018-02-09T20:26:43.280Z,2.57
2018-02-09T20:27:43.227Z,2.56
2018-02-09T20:28:43.168Z,2.62
2018-02-09T20:29:43.129Z,2.64
2018-02-09T20:30:43.137Z,2.71
2018-02-09T20:31:43.122Z,2.69
2018-02-09T20:32:43.078Z,2.71
2018-02-09T20:33:43.042Z,2.77
2018-02-09T20:34:43.031Z,2.89
2018-02-09T20:35:42.997Z,2.86
2018-02-09T20:36:42.970Z,2.74
2018-02-09T20:37:42.897Z,2.72
2018-02-09T20:38:42.915Z,2.74
2018-02-09T20:39:42.888Z,2.75
2018-02-09T20:40:42.850Z,2.72
2018-02-09T20:41:42.795Z,2.65
2018-02-09T20:42:42.794Z,2.69
2018-02-09T20:43:42.761Z,2.67